Time;durP1;ratioP1;P1;durP2;ratioP2;P2;SDS_P1;SDS_P2;PMS_P1;PMS_P2;Temp;Humidity;BMP_temperature;BMP_pressure;BME280_temperature;BME280_humidity;BME280_pressure;Samples;Min_cycle;Max_cycle;Signal;HPM_P1;HPM_P2
2023/08/16 00:00:30;;;;;;;;;;;21.30;99.90;;;;;;7343733;19;111526;-95
2023/08/16 00:02:57;;;;;;;;;;;21.30;99.90;;;;;;7345477;19;111530;-92
2023/08/16 00:05:25;;;;;;;;;;;21.30;99.90;;;;;;7344118;19;108510;-95
2023/08/16 00:07:52;;;;;;;;;;;21.30;99.90;;;;;;7344623;19;111208;-95
2023/08/16 00:10:19;;;;;;;;;;;21.40;99.90;;;;;;7341073;19;112146;-94
2023/08/16 00:12:53;;;;;;;;;;;21.30;99.90;;;;;;7329470;19;109304;-75
2023/08/16 00:15:20;;;;;;;;;;;21.30;99.90;;;;;;7335883;19;109998;-74
2023/08/16 00:17:48;;;;;;;;;;;21.30;99.90;;;;;;7333933;19;113043;-74
2023/08/16 00:20:17;;;;;;;;;;;21.30;99.90;;;;;;7328108;19;108937;-74
2023/08/16 00:22:44;;;;;;;;;;;21.30;99.90;;;;;;7333940;19;109589;-74
2023/08/16 00:25:11;;;;;;;;;;;21.30;99.90;;;;;;7332053;19;108741;-74
2023/08/16 00:27:39;;;;;;;;;;;21.30;99.90;;;;;;7331112;19;109274;-75
2023/08/16 00:30:06;;;;;;;;;;;21.30;99.90;;;;;;7332162;19;109835;-75
2023/08/16 00:32:34;;;;;;;;;;;21.40;99.90;;;;;;7334220;19;109179;-73
2023/08/16 00:35:02;;;;;;;;;;;21.30;99.90;;;;;;7337523;19;109903;-74
2023/08/16 00:37:29;;;;;;;;;;;21.30;99.90;;;;;;7335458;19;110417;-75
2023/08/16 00:39:56;;;;;;;;;;;21.30;99.90;;;;;;7333508;19;109463;-76
2023/08/16 00:42:23;;;;;;;;;;;21.30;99.90;;;;;;7332464;19;109220;-75
2023/08/16 00:44:50;;;;;;;;;;;21.30;99.90;;;;;;7333211;19;109253;-74
2023/08/16 00:47:18;;;;;;;;;;;21.30;99.90;;;;;;7330827;19;109884;-74
2023/08/16 00:49:45;;;;;;;;;;;21.30;99.90;;;;;;7334428;19;110324;-74
2023/08/16 00:52:12;;;;;;;;;;;21.20;99.90;;;;;;7336329;19;110225;-74
2023/08/16 00:54:39;;;;;;;;;;;21.20;99.90;;;;;;7332241;19;109892;-75
2023/08/16 00:57:07;;;;;;;;;;;21.10;99.90;;;;;;7330666;19;109664;-74
2023/08/16 00:59:35;;;;;;;;;;;21.10;99.90;;;;;;7335718;19;109724;-74
2023/08/16 01:02:02;;;;;;;;;;;21.10;99.90;;;;;;7330645;19;109413;-74
2023/08/16 01:04:30;;;;;;;;;;;21.10;99.90;;;;;;7330478;19;109119;-75
2023/08/16 01:06:57;;;;;;;;;;;21.10;99.90;;;;;;7328497;19;109564;-74
2023/08/16 01:09:25;;;;;;;;;;;21.10;99.90;;;;;;7331175;19;109061;-74
2023/08/16 01:12:10;;;;;;;;;;;21.10;99.90;;;;;;7332924;19;108934;-74
2023/08/16 01:14:50;;;;;;;;;;;21.00;99.90;;;;;;7331285;19;109841;-73
2023/08/16 01:17:20;;;;;;;;;;;21.00;99.90;;;;;;7331952;19;108909;-75
2023/08/16 01:19:49;;;;;;;;;;;21.00;99.90;;;;;;7332086;19;113632;-74
2023/08/16 01:22:25;;;;;;;;;;;21.00;99.90;;;;;;7336965;19;109669;-74
2023/08/16 01:24:58;;;;;;;;;;;21.00;99.90;;;;;;7332743;19;109960;-73
2023/08/16 01:27:26;;;;;;;;;;;21.00;99.90;;;;;;7331225;19;108911;-74
2023/08/16 01:29:53;;;;;;;;;;;21.00;99.90;;;;;;7329176;19;109779;-74
2023/08/16 01:32:21;;;;;;;;;;;20.90;99.90;;;;;;7333070;19;109099;-72
2023/08/16 01:34:49;;;;;;;;;;;20.90;99.90;;;;;;7332397;19;108679;-75
2023/08/16 01:37:16;;;;;;;;;;;20.90;99.90;;;;;;7328721;19;112091;-75
2023/08/16 01:39:44;;;;;;;;;;;20.90;99.90;;;;;;7331904;19;109701;-74
2023/08/16 01:42:15;;;;;;;;;;;20.80;99.90;;;;;;7335064;19;110780;-74
2023/08/16 01:44:42;;;;;;;;;;;20.80;99.90;;;;;;7331808;19;111564;-73
2023/08/16 01:47:10;;;;;;;;;;;20.80;99.90;;;;;;7333012;19;109239;-74
2023/08/16 01:49:37;;;;;;;;;;;20.80;99.90;;;;;;7327152;19;110308;-75
2023/08/16 01:52:05;;;;;;;;;;;20.90;99.90;;;;;;7333814;19;109503;-74
2023/08/16 01:54:33;;;;;;;;;;;20.80;99.90;;;;;;7331437;19;108604;-74
2023/08/16 01:57:00;;;;;;;;;;;20.80;99.90;;;;;;7330989;19;110281;-73
2023/08/16 01:59:27;;;;;;;;;;;20.80;99.90;;;;;;7330483;19;111137;-74
2023/08/16 02:01:54;;;;;;;;;;;20.80;99.90;;;;;;7331161;19;108772;-75
2023/08/16 02:04:21;;;;;;;;;;;20.80;99.90;;;;;;7333388;19;109393;-74
2023/08/16 02:06:48;;;;;;;;;;;20.70;99.90;;;;;;7331246;19;110421;-74
2023/08/16 02:09:16;;;;;;;;;;;20.50;99.90;;;;;;7331364;19;109452;-74
2023/08/16 02:11:43;;;;;;;;;;;20.50;99.90;;;;;;7331537;19;113887;-74
2023/08/16 02:14:10;;;;;;;;;;;20.50;99.90;;;;;;7328344;19;109390;-74
2023/08/16 02:16:37;;;;;;;;;;;20.50;99.90;;;;;;7331295;19;110177;-73
2023/08/16 02:19:04;;;;;;;;;;;20.50;99.90;;;;;;7333865;19;109381;-74
2023/08/16 02:21:31;;;;;;;;;;;20.50;99.90;;;;;;7337076;19;108910;-74
2023/08/16 02:23:58;;;;;;;;;;;20.60;99.90;;;;;;7329573;19;110442;-74
2023/08/16 02:26:25;;;;;;;;;;;20.60;99.90;;;;;;7339266;19;109419;-74
2023/08/16 02:28:53;;;;;;;;;;;20.60;99.90;;;;;;7337368;19;114051;-74
2023/08/16 02:31:20;;;;;;;;;;;20.50;99.90;;;;;;7333528;19;108769;-72
2023/08/16 02:33:47;;;;;;;;;;;20.50;99.90;;;;;;7335834;19;109385;-74
2023/08/16 02:36:14;;;;;;;;;;;20.40;99.90;;;;;;7337171;19;108793;-74
2023/08/16 02:38:41;;;;;;;;;;;20.30;99.90;;;;;;7335609;19;109950;-74
2023/08/16 02:41:09;;;;;;;;;;;20.30;99.90;;;;;;7338602;19;111570;-74
2023/08/16 02:43:36;;;;;;;;;;;20.30;99.90;;;;;;7335626;19;110356;-74
2023/08/16 02:46:03;;;;;;;;;;;20.40;99.90;;;;;;7338815;19;109016;-73
2023/08/16 02:48:31;;;;;;;;;;;20.30;99.90;;;;;;7341133;19;110114;-74
2023/08/16 02:50:58;;;;;;;;;;;20.30;99.90;;;;;;7335277;19;109414;-73
2023/08/16 02:53:25;;;;;;;;;;;20.20;99.90;;;;;;7337228;19;108793;-72
2023/08/16 02:55:52;;;;;;;;;;;20.20;99.90;;;;;;7336508;19;111197;-73
2023/08/16 02:58:20;;;;;;;;;;;20.30;99.90;;;;;;7334570;19;109175;-73
2023/08/16 03:00:50;;;;;;;;;;;20.30;99.90;;;;;;7335328;19;111996;-71
2023/08/16 03:03:17;;;;;;;;;;;20.30;99.90;;;;;;7335033;19;110036;-73
2023/08/16 03:05:45;;;;;;;;;;;20.30;99.90;;;;;;7334412;19;108560;-73
2023/08/16 03:08:12;;;;;;;;;;;20.30;99.90;;;;;;7337803;19;108750;-72
2023/08/16 03:10:39;;;;;;;;;;;20.30;99.90;;;;;;7340690;19;109115;-73
2023/08/16 03:13:07;;;;;;;;;;;20.30;99.90;;;;;;7336741;19;111454;-71
2023/08/16 03:15:34;;;;;;;;;;;20.20;99.90;;;;;;7334916;19;109128;-73
2023/08/16 03:18:01;;;;;;;;;;;20.30;99.90;;;;;;7337206;19;111050;-75
2023/08/16 03:20:28;;;;;;;;;;;20.30;99.90;;;;;;7335640;19;109588;-73
2023/08/16 03:22:55;;;;;;;;;;;20.30;99.90;;;;;;7334759;19;109521;-73
2023/08/16 03:25:23;;;;;;;;;;;20.20;99.90;;;;;;7335518;19;109111;-74
2023/08/16 03:27:50;;;;;;;;;;;20.20;99.90;;;;;;7335210;19;108704;-73
2023/08/16 03:30:17;;;;;;;;;;;20.30;99.90;;;;;;7334794;19;111091;-73
2023/08/16 03:32:44;;;;;;;;;;;20.30;99.90;;;;;;7341440;19;108854;-73
2023/08/16 03:35:11;;;;;;;;;;;20.20;99.90;;;;;;7333365;19;108966;-72
2023/08/16 03:37:38;;;;;;;;;;;20.10;99.90;;;;;;7336792;19;109438;-73
2023/08/16 03:40:06;;;;;;;;;;;20.00;99.90;;;;;;7335420;19;108421;-73
2023/08/16 03:42:33;;;;;;;;;;;20.00;99.90;;;;;;7335355;19;108903;-73
2023/08/16 03:45:00;;;;;;;;;;;20.10;99.90;;;;;;7334065;19;108705;-73
2023/08/16 03:47:29;;;;;;;;;;;20.10;99.90;;;;;;7335037;19;109149;-73
2023/08/16 03:49:59;;;;;;;;;;;20.10;99.90;;;;;;7334257;19;110647;-73
2023/08/16 03:52:26;;;;;;;;;;;20.10;99.90;;;;;;7342724;19;109647;-74
2023/08/16 03:54:54;;;;;;;;;;;20.00;99.90;;;;;;7333624;19;111329;-74
2023/08/16 03:57:22;;;;;;;;;;;20.00;99.90;;;;;;7333232;19;109088;-74
2023/08/16 03:59:51;;;;;;;;;;;20.10;99.90;;;;;;7338319;19;110872;-73
2023/08/16 04:02:21;;;;;;;;;;;20.10;99.90;;;;;;7330746;19;112422;-74
2023/08/16 04:04:51;;;;;;;;;;;20.00;99.90;;;;;;7335200;19;109169;-75
2023/08/16 04:07:18;;;;;;;;;;;20.00;99.90;;;;;;7335044;19;109478;-73
2023/08/16 04:09:45;;;;;;;;;;;20.00;99.90;;;;;;7333284;19;109301;-74
2023/08/16 04:12:12;;;;;;;;;;;20.00;99.90;;;;;;7336285;19;109572;-73
2023/08/16 04:14:40;;;;;;;;;;;20.00;99.90;;;;;;7341672;19;109083;-73
2023/08/16 04:17:07;;;;;;;;;;;20.00;99.90;;;;;;7336070;19;108909;-73
2023/08/16 04:19:34;;;;;;;;;;;20.00;99.90;;;;;;7333192;19;108952;-74
2023/08/16 04:22:01;;;;;;;;;;;20.00;99.90;;;;;;7333360;19;109116;-72
2023/08/16 04:24:28;;;;;;;;;;;20.10;99.90;;;;;;7332960;19;108989;-74
2023/08/16 04:26:55;;;;;;;;;;;20.00;99.90;;;;;;7337270;19;108969;-73
2023/08/16 04:29:24;;;;;;;;;;;20.00;99.90;;;;;;7335264;19;116632;-73
2023/08/16 04:31:51;;;;;;;;;;;20.00;99.90;;;;;;7335158;19;109088;-72
2023/08/16 04:34:18;;;;;;;;;;;20.00;99.90;;;;;;7332892;19;109463;-75
2023/08/16 04:36:46;;;;;;;;;;;20.00;99.90;;;;;;7336864;19;109090;-73
2023/08/16 04:39:13;;;;;;;;;;;19.90;99.90;;;;;;7334456;19;113149;-74
2023/08/16 04:41:40;;;;;;;;;;;19.90;99.90;;;;;;7333842;19;110079;-73
2023/08/16 04:44:07;;;;;;;;;;;19.90;99.90;;;;;;7335197;19;109408;-73
2023/08/16 04:46:34;;;;;;;;;;;19.90;99.90;;;;;;7330402;19;111066;-72
2023/08/16 04:49:02;;;;;;;;;;;19.90;99.90;;;;;;7336352;19;110475;-73
2023/08/16 04:51:29;;;;;;;;;;;19.90;99.90;;;;;;7331490;19;108774;-73
2023/08/16 04:53:56;;;;;;;;;;;20.00;99.90;;;;;;7331198;19;109160;-72
2023/08/16 04:56:23;;;;;;;;;;;20.00;99.90;;;;;;7333279;19;109613;-72
2023/08/16 04:58:50;;;;;;;;;;;20.00;99.90;;;;;;7334712;19;108788;-72
2023/08/16 05:01:18;;;;;;;;;;;20.00;99.90;;;;;;7330601;19;109470;-72
2023/08/16 05:03:50;;;;;;;;;;;20.00;99.90;;;;;;7332450;19;110797;-72
2023/08/16 05:06:17;;;;;;;;;;;20.00;99.90;;;;;;7334259;19;109184;-73
2023/08/16 05:08:45;;;;;;;;;;;20.00;99.90;;;;;;7330744;19;109141;-74
2023/08/16 05:11:12;;;;;;;;;;;19.90;99.90;;;;;;7335733;19;108853;-73
2023/08/16 05:13:40;;;;;;;;;;;19.80;99.90;;;;;;7330688;19;108612;-72
2023/08/16 05:16:07;;;;;;;;;;;19.80;99.90;;;;;;7333775;19;110479;-74
2023/08/16 05:18:35;;;;;;;;;;;19.80;99.90;;;;;;7332202;19;109862;-72
2023/08/16 05:21:03;;;;;;;;;;;19.70;99.90;;;;;;7339422;19;108441;-72
2023/08/16 05:23:30;;;;;;;;;;;19.70;99.90;;;;;;7332670;19;109428;-72
2023/08/16 05:25:57;;;;;;;;;;;19.70;99.90;;;;;;7329648;19;108721;-74
2023/08/16 05:28:24;;;;;;;;;;;19.60;99.90;;;;;;7327742;19;110598;-72
2023/08/16 05:30:51;;;;;;;;;;;19.60;99.90;;;;;;7331084;19;110108;-72
2023/08/16 05:33:19;;;;;;;;;;;19.50;99.90;;;;;;7330683;19;110139;-72
2023/08/16 05:35:46;;;;;;;;;;;19.50;99.90;;;;;;7329820;19;110640;-72
2023/08/16 05:38:13;;;;;;;;;;;19.50;99.90;;;;;;7325725;19;110632;-73
2023/08/16 05:40:40;;;;;;;;;;;19.60;99.90;;;;;;7334285;19;109703;-72
2023/08/16 05:43:07;;;;;;;;;;;19.60;99.90;;;;;;7327903;19;109903;-72
2023/08/16 05:45:34;;;;;;;;;;;19.70;99.90;;;;;;7331370;19;111174;-72
2023/08/16 05:48:01;;;;;;;;;;;19.70;99.90;;;;;;7328363;19;110147;-72
2023/08/16 05:50:29;;;;;;;;;;;19.70;99.90;;;;;;7332611;19;108992;-71
2023/08/16 05:52:56;;;;;;;;;;;19.70;99.90;;;;;;7329915;19;109627;-72
2023/08/16 05:55:23;;;;;;;;;;;19.70;99.90;;;;;;7337850;19;110012;-72
2023/08/16 05:57:50;;;;;;;;;;;19.70;99.90;;;;;;7336960;19;109397;-75
2023/08/16 06:00:20;;;;;;;;;;;19.80;99.90;;;;;;7341233;19;109480;-72
2023/08/16 06:02:47;;;;;;;;;;;19.80;99.90;;;;;;7341338;19;110165;-72
2023/08/16 06:05:14;;;;;;;;;;;19.80;99.90;;;;;;7336774;19;109461;-69
2023/08/16 06:07:41;;;;;;;;;;;19.80;99.90;;;;;;7337910;19;109502;-72
2023/08/16 06:10:08;;;;;;;;;;;19.80;99.90;;;;;;7336747;19;108853;-72
2023/08/16 06:12:36;;;;;;;;;;;19.70;99.90;;;;;;7336358;19;109350;-72
2023/08/16 06:15:03;;;;;;;;;;;19.80;99.90;;;;;;7339531;19;110003;-73
2023/08/16 06:17:30;;;;;;;;;;;19.80;99.90;;;;;;7338076;19;109270;-72
2023/08/16 06:19:57;;;;;;;;;;;19.90;99.90;;;;;;7339013;19;109796;-72
2023/08/16 06:22:24;;;;;;;;;;;20.00;99.90;;;;;;7337524;19;111249;-72
2023/08/16 06:24:53;;;;;;;;;;;20.10;99.90;;;;;;7342828;19;109434;-72
2023/08/16 06:27:20;;;;;;;;;;;20.10;99.90;;;;;;7338272;19;110711;-73
2023/08/16 06:29:48;;;;;;;;;;;20.10;99.90;;;;;;7339898;19;109821;-72
2023/08/16 06:32:15;;;;;;;;;;;20.10;99.90;;;;;;7339988;19;109193;-72
2023/08/16 06:34:43;;;;;;;;;;;20.10;99.90;;;;;;7334732;19;110295;-73
2023/08/16 06:37:10;;;;;;;;;;;20.20;99.90;;;;;;7336726;19;109755;-72
2023/08/16 06:39:38;;;;;;;;;;;20.30;99.90;;;;;;7336990;19;109443;-71
2023/08/16 06:42:05;;;;;;;;;;;20.40;99.90;;;;;;7336494;19;108871;-73
2023/08/16 06:44:32;;;;;;;;;;;20.50;99.90;;;;;;7331080;19;109652;-73
2023/08/16 06:46:59;;;;;;;;;;;20.50;99.90;;;;;;7342120;19;109282;-73
2023/08/16 06:49:26;;;;;;;;;;;20.50;99.90;;;;;;7333427;19;110421;-73
2023/08/16 06:51:53;;;;;;;;;;;20.60;99.90;;;;;;7339046;19;111125;-73
2023/08/16 06:54:21;;;;;;;;;;;20.50;99.90;;;;;;7336190;19;109222;-73
2023/08/16 06:56:49;;;;;;;;;;;20.60;99.90;;;;;;7338799;19;114853;-73
2023/08/16 06:59:16;;;;;;;;;;;20.60;99.90;;;;;;7335144;19;108346;-72
2023/08/16 07:01:43;;;;;;;;;;;20.60;99.90;;;;;;7336035;19;110199;-71
2023/08/16 07:04:10;;;;;;;;;;;20.70;99.90;;;;;;7336064;19;109069;-73
2023/08/16 07:06:37;;;;;;;;;;;20.70;99.90;;;;;;7334544;19;109526;-72
2023/08/16 07:09:04;;;;;;;;;;;20.80;99.90;;;;;;7341825;19;109541;-73
2023/08/16 07:11:31;;;;;;;;;;;20.80;99.90;;;;;;7335940;19;108931;-73
2023/08/16 07:14:00;;;;;;;;;;;20.90;99.90;;;;;;7335486;19;109309;-74
2023/08/16 07:16:27;;;;;;;;;;;20.90;99.90;;;;;;7334733;19;108925;-75
2023/08/16 07:18:54;;;;;;;;;;;20.90;99.90;;;;;;7338010;19;109256;-73
2023/08/16 07:21:21;;;;;;;;;;;20.90;99.90;;;;;;7334058;19;109187;-74
2023/08/16 07:23:49;;;;;;;;;;;20.90;99.90;;;;;;7338062;19;108545;-75
2023/08/16 07:26:16;;;;;;;;;;;20.90;99.90;;;;;;7337067;19;110872;-74
2023/08/16 07:28:43;;;;;;;;;;;20.90;99.90;;;;;;7337315;19;112737;-75
2023/08/16 07:31:10;;;;;;;;;;;20.90;99.90;;;;;;7335383;19;108975;-73
2023/08/16 07:33:37;;;;;;;;;;;21.00;99.90;;;;;;7333770;19;110151;-78
2023/08/16 07:36:04;;;;;;;;;;;21.10;99.90;;;;;;7337164;19;110168;-73
2023/08/16 07:38:32;;;;;;;;;;;21.20;99.90;;;;;;7332572;19;109002;-72
2023/08/16 07:41:00;;;;;;;;;;;21.20;99.90;;;;;;7333060;19;109432;-71
2023/08/16 07:43:28;;;;;;;;;;;21.30;99.90;;;;;;7332017;19;109167;-71
2023/08/16 07:45:55;;;;;;;;;;;21.30;99.90;;;;;;7332179;19;111434;-71
2023/08/16 07:48:23;;;;;;;;;;;21.30;99.90;;;;;;7333894;19;112054;-72
2023/08/16 07:50:50;;;;;;;;;;;21.40;99.90;;;;;;7340240;19;110272;-71
2023/08/16 07:53:17;;;;;;;;;;;21.50;99.90;;;;;;7333513;19;110359;-70
2023/08/16 07:55:45;;;;;;;;;;;21.60;99.90;;;;;;7337973;19;109443;-70
2023/08/16 07:58:15;;;;;;;;;;;21.60;99.90;;;;;;7336724;19;108877;-70
2023/08/16 08:00:42;;;;;;;;;;;21.60;99.90;;;;;;7337051;19;109344;-70
2023/08/16 08:03:09;;;;;;;;;;;21.70;99.90;;;;;;7333240;19;110640;-70
2023/08/16 08:05:37;;;;;;;;;;;21.80;99.90;;;;;;7332492;19;109381;-70
2023/08/16 08:08:08;;;;;;;;;;;21.80;99.90;;;;;;7333481;19;111280;-69
2023/08/16 08:10:35;;;;;;;;;;;21.90;99.90;;;;;;7332891;19;109746;-68
2023/08/16 08:13:03;;;;;;;;;;;22.00;99.90;;;;;;7342572;19;109382;-68
2023/08/16 08:15:30;;;;;;;;;;;22.10;99.90;;;;;;7331525;19;108458;-69
2023/08/16 08:17:57;;;;;;;;;;;22.10;99.90;;;;;;7333479;19;111008;-66
2023/08/16 08:20:24;;;;;;;;;;;22.10;99.90;;;;;;7335049;19;110399;-73
2023/08/16 08:22:51;;;;;;;;;;;22.10;99.90;;;;;;7334178;19;108509;-74
2023/08/16 08:25:18;;;;;;;;;;;22.00;99.90;;;;;;7336874;19;108728;-75
2023/08/16 08:27:46;;;;;;;;;;;22.00;99.90;;;;;;7332788;19;109404;-75
2023/08/16 08:30:15;;;;;;;;;;;21.90;99.90;;;;;;7334351;19;110317;-75
2023/08/16 08:32:43;;;;;;;;;;;21.90;99.90;;;;;;7334728;19;110933;-75
2023/08/16 08:35:10;;;;;;;;;;;21.90;99.90;;;;;;7341039;19;109127;-75
2023/08/16 08:37:37;;;;;;;;;;;21.80;99.90;;;;;;7337221;19;108233;-74
2023/08/16 08:40:05;;;;;;;;;;;21.70;99.90;;;;;;7337162;19;109708;-75
2023/08/16 08:42:33;;;;;;;;;;;21.70;99.90;;;;;;7334319;19;109422;-75
2023/08/16 08:45:01;;;;;;;;;;;21.90;99.90;;;;;;7336956;19;109521;-74
2023/08/16 08:47:29;;;;;;;;;;;21.90;99.90;;;;;;7336122;19;109799;-74
2023/08/16 08:49:57;;;;;;;;;;;22.00;99.90;;;;;;7338986;19;111076;-75
2023/08/16 08:52:25;;;;;;;;;;;22.10;99.90;;;;;;7335176;19;109332;-74
2023/08/16 08:54:52;;;;;;;;;;;22.20;99.90;;;;;;7336639;19;111840;-76
2023/08/16 08:57:20;;;;;;;;;;;22.20;99.90;;;;;;7342242;19;109139;-74
2023/08/16 08:59:53;;;;;;;;;;;22.20;99.90;;;;;;7336798;19;109757;-74
2023/08/16 09:02:20;;;;;;;;;;;22.30;99.90;;;;;;7335757;19;108951;-74
2023/08/16 09:04:50;;;;;;;;;;;22.30;99.90;;;;;;7338249;19;109018;-74
2023/08/16 09:07:18;;;;;;;;;;;22.20;99.90;;;;;;7335136;19;110963;-74
2023/08/16 09:09:48;;;;;;;;;;;22.20;99.90;;;;;;7337012;19;108654;-74
2023/08/16 09:12:15;;;;;;;;;;;22.20;99.90;;;;;;7334776;19;110445;-74
2023/08/16 09:14:42;;;;;;;;;;;22.20;99.90;;;;;;7335255;19;110545;-74
2023/08/16 09:17:09;;;;;;;;;;;22.20;99.90;;;;;;7334593;19;109526;-73
2023/08/16 09:19:45;;;;;;;;;;;22.30;99.90;;;;;;7338894;19;109085;-74
2023/08/16 09:22:13;;;;;;;;;;;22.20;99.90;;;;;;7336834;19;108391;-75
2023/08/16 09:24:43;;;;;;;;;;;22.30;99.90;;;;;;7336059;19;108688;-74
2023/08/16 09:27:10;;;;;;;;;;;22.40;99.90;;;;;;7333866;19;109914;-74
2023/08/16 09:29:40;;;;;;;;;;;22.40;99.90;;;;;;7335855;19;109626;-74
2023/08/16 09:32:08;;;;;;;;;;;22.40;99.90;;;;;;7335079;19;111938;-74
2023/08/16 09:34:43;;;;;;;;;;;22.50;99.90;;;;;;7334003;19;109111;-74
2023/08/16 09:37:15;;;;;;;;;;;22.40;99.90;;;;;;7333071;19;109813;-74
2023/08/16 09:39:42;;;;;;;;;;;22.40;99.90;;;;;;7335633;19;109044;-75
2023/08/16 09:42:10;;;;;;;;;;;22.40;99.90;;;;;;7339429;19;110144;-74
2023/08/16 09:44:40;;;;;;;;;;;22.50;99.90;;;;;;7332776;19;109889;-74
2023/08/16 09:47:12;;;;;;;;;;;22.50;99.90;;;;;;7336323;19;109928;-73
2023/08/16 09:49:40;;;;;;;;;;;22.60;99.90;;;;;;7335938;19;109567;-74
2023/08/16 09:52:11;;;;;;;;;;;22.60;99.90;;;;;;7335982;19;108579;-74
2023/08/16 09:54:40;;;;;;;;;;;22.60;99.90;;;;;;7335249;19;109202;-74
2023/08/16 09:57:07;;;;;;;;;;;22.60;99.90;;;;;;7334428;19;109077;-73
2023/08/16 09:59:37;;;;;;;;;;;22.60;99.90;;;;;;7335336;19;109245;-75
2023/08/16 10:02:10;;;;;;;;;;;22.60;99.90;;;;;;7338919;19;109473;-74
2023/08/16 10:04:40;;;;;;;;;;;22.60;99.90;;;;;;7333045;19;108754;-75
2023/08/16 10:07:10;;;;;;;;;;;22.60;99.90;;;;;;7334243;19;109728;-75
2023/08/16 10:09:41;;;;;;;;;;;22.50;99.90;;;;;;7329767;19;110862;-75
2023/08/16 10:12:10;;;;;;;;;;;22.50;99.90;;;;;;7334077;19;109681;-75
2023/08/16 10:14:38;;;;;;;;;;;22.70;99.90;;;;;;7329575;19;109335;-74
2023/08/16 10:17:06;;;;;;;;;;;22.70;99.90;;;;;;7332159;19;108942;-73
2023/08/16 10:19:36;;;;;;;;;;;22.80;99.90;;;;;;7332039;19;108536;-74
2023/08/16 10:22:11;;;;;;;;;;;22.90;99.90;;;;;;7331505;19;109192;-75
2023/08/16 10:24:57;;;;;;;;;;;23.00;99.90;;;;;;7337381;19;110114;-75
2023/08/16 10:27:25;;;;;;;;;;;23.00;99.90;;;;;;7332612;19;110538;-75
2023/08/16 10:29:57;;;;;;;;;;;23.10;99.90;;;;;;7332355;19;108823;-75
2023/08/16 10:32:35;;;;;;;;;;;23.30;99.90;;;;;;7332927;19;110052;-75
2023/08/16 10:35:03;;;;;;;;;;;23.50;99.90;;;;;;7331046;19;109531;-75
2023/08/16 10:37:30;;;;;;;;;;;23.70;99.90;;;;;;7328748;19;108739;-74
2023/08/16 10:39:57;;;;;;;;;;;23.80;99.90;;;;;;7330280;19;108649;-74
2023/08/16 10:42:47;;;;;;;;;;;23.90;99.90;;;;;;7336455;19;109297;-75
2023/08/16 10:45:21;;;;;;;;;;;23.80;99.90;;;;;;7336228;19;108904;-74
2023/08/16 10:47:51;;;;;;;;;;;23.80;99.90;;;;;;7342032;19;109721;-75
2023/08/16 10:50:19;;;;;;;;;;;23.90;99.90;;;;;;7335508;19;108696;-75
2023/08/16 10:52:46;;;;;;;;;;;24.00;99.90;;;;;;7335991;19;108965;-75
2023/08/16 10:55:13;;;;;;;;;;;24.10;99.90;;;;;;7336231;19;110214;-75
2023/08/16 10:57:52;;;;;;;;;;;24.20;99.90;;;;;;7336496;19;108406;-74
2023/08/16 11:00:20;;;;;;;;;;;24.30;99.90;;;;;;7339649;19;108562;-74
2023/08/16 11:02:48;;;;;;;;;;;24.30;99.90;;;;;;7338222;19;109844;-74
2023/08/16 11:05:18;;;;;;;;;;;24.30;99.90;;;;;;7338572;19;108280;-75
2023/08/16 11:07:46;;;;;;;;;;;24.50;99.90;;;;;;7336317;19;109980;-74
2023/08/16 11:10:13;;;;;;;;;;;24.60;99.90;;;;;;7344353;19;109120;-74
2023/08/16 11:12:40;;;;;;;;;;;24.70;99.90;;;;;;7338815;19;108634;-75
2023/08/16 11:15:09;;;;;;;;;;;24.80;99.90;;;;;;7336066;19;109510;-75
2023/08/16 11:17:38;;;;;;;;;;;24.90;99.90;;;;;;7336970;19;109091;-74
2023/08/16 11:20:09;;;;;;;;;;;25.10;99.90;;;;;;7339292;19;109165;-74
2023/08/16 11:22:37;;;;;;;;;;;25.30;99.90;;;;;;7340247;19;109357;-74
2023/08/16 11:25:04;;;;;;;;;;;25.40;99.90;;;;;;7339115;19;108567;-75
2023/08/16 11:27:31;;;;;;;;;;;25.40;99.90;;;;;;7338857;19;108957;-74
2023/08/16 11:30:00;;;;;;;;;;;25.40;99.90;;;;;;7337083;19;110499;-75
2023/08/16 11:32:37;;;;;;;;;;;25.40;99.90;;;;;;7342454;19;108780;-74
2023/08/16 11:35:06;;;;;;;;;;;25.40;99.90;;;;;;7338334;19;111656;-75
2023/08/16 11:37:33;;;;;;;;;;;25.50;99.90;;;;;;7338288;19;108967;-74
2023/08/16 11:40:07;;;;;;;;;;;25.70;99.90;;;;;;7340012;19;108512;-74
2023/08/16 11:42:34;;;;;;;;;;;25.80;99.90;;;;;;7336888;19;109519;-74
2023/08/16 11:45:03;;;;;;;;;;;25.90;99.90;;;;;;7338967;19;108387;-75
2023/08/16 11:47:30;;;;;;;;;;;26.00;99.90;;;;;;7336546;19;109019;-75
2023/08/16 11:50:06;;;;;;;;;;;26.00;99.90;;;;;;7337276;19;111900;-75
2023/08/16 11:52:33;;;;;;;;;;;26.10;99.90;;;;;;7335977;19;111418;-75
2023/08/16 11:55:01;;;;;;;;;;;26.30;99.90;;;;;;7342201;19;109881;-74
2023/08/16 11:57:28;;;;;;;;;;;26.60;99.90;;;;;;7336847;19;113030;-74
2023/08/16 11:59:58;;;;;;;;;;;26.70;99.90;;;;;;7337424;19;108933;-75
2023/08/16 12:02:25;;;;;;;;;;;26.60;99.90;;;;;;7335177;19;110049;-75
2023/08/16 12:04:52;;;;;;;;;;;26.50;99.90;;;;;;7338953;19;108906;-75
2023/08/16 12:07:20;;;;;;;;;;;26.60;99.90;;;;;;7334939;19;109528;-76
2023/08/16 12:09:47;;;;;;;;;;;26.70;99.90;;;;;;7336550;19;109198;-75
2023/08/16 12:12:15;;;;;;;;;;;26.90;99.90;;;;;;7334408;19;108886;-75
2023/08/16 12:14:42;;;;;;;;;;;27.10;99.90;;;;;;7337241;19;109345;-75
2023/08/16 12:17:09;;;;;;;;;;;27.30;99.90;;;;;;7335314;19;108442;-76
2023/08/16 12:19:36;;;;;;;;;;;27.30;99.90;;;;;;7334398;19;109633;-75
2023/08/16 12:22:03;;;;;;;;;;;27.30;99.90;;;;;;7335149;19;109216;-75
2023/08/16 12:24:31;;;;;;;;;;;27.20;99.90;;;;;;7334897;19;108677;-75
2023/08/16 12:26:58;;;;;;;;;;;27.00;99.90;;;;;;7336141;19;113897;-75
2023/08/16 12:29:26;;;;;;;;;;;27.00;99.90;;;;;;7335020;19;109667;-75
2023/08/16 12:31:53;;;;;;;;;;;26.80;99.90;;;;;;7337077;19;109564;-75
2023/08/16 12:34:20;;;;;;;;;;;26.90;99.90;;;;;;7335906;19;108668;-75
2023/08/16 12:36:47;;;;;;;;;;;27.10;99.90;;;;;;7340732;19;110857;-75
2023/08/16 12:39:15;;;;;;;;;;;27.00;99.90;;;;;;7336469;19;108361;-75
2023/08/16 12:41:42;;;;;;;;;;;26.90;99.90;;;;;;7334810;19;109100;-75
2023/08/16 12:44:10;;;;;;;;;;;26.80;99.90;;;;;;7336787;19;108641;-75
2023/08/16 12:46:38;;;;;;;;;;;26.70;99.90;;;;;;7331918;19;112337;-76
2023/08/16 12:49:05;;;;;;;;;;;26.90;99.90;;;;;;7337680;19;109116;-75
2023/08/16 12:51:32;;;;;;;;;;;26.90;99.90;;;;;;7334873;19;108378;-75
2023/08/16 12:54:02;;;;;;;;;;;26.90;99.90;;;;;;7333939;19;108981;-76
2023/08/16 12:56:29;;;;;;;;;;;27.10;99.90;;;;;;7334828;19;110160;-76
2023/08/16 12:58:58;;;;;;;;;;;27.30;99.90;;;;;;7342775;19;113308;-76
2023/08/16 13:01:25;;;;;;;;;;;27.30;99.90;;;;;;7334648;19;109078;-76
2023/08/16 13:04:07;;;;;;;;;;;27.60;99.90;;;;;;7329977;19;108650;-75
2023/08/16 13:06:39;;;;;;;;;;;27.60;99.90;;;;;;7336103;19;108994;-75
2023/08/16 13:09:18;;;;;;;;;;;27.80;99.90;;;;;;7330362;19;110344;-67
2023/08/16 13:11:48;;;;;;;;;;;27.80;99.90;;;;;;7333283;19;108811;-75
2023/08/16 13:14:21;;;;;;;;;;;27.80;99.90;;;;;;7335854;19;109485;-73
2023/08/16 13:16:51;;;;;;;;;;;27.90;99.90;;;;;;7333166;19;109563;-74
2023/08/16 13:19:31;;;;;;;;;;;27.80;99.90;;;;;;7330806;19;110884;-73
2023/08/16 13:22:13;;;;;;;;;;;27.40;99.90;;;;;;7333043;19;113898;-72
2023/08/16 13:24:44;;;;;;;;;;;27.30;99.90;;;;;;7332632;19;109580;-72
2023/08/16 13:27:24;;;;;;;;;;;27.30;99.90;;;;;;7334575;19;109404;-72
2023/08/16 13:30:07;;;;;;;;;;;27.30;99.90;;;;;;7333767;19;112316;-71
2023/08/16 13:32:54;;;;;;;;;;;27.30;99.90;;;;;;7332470;19;109487;-72
2023/08/16 13:35:32;;;;;;;;;;;27.40;99.90;;;;;;7334539;19;108702;-72
2023/08/16 13:38:15;;;;;;;;;;;27.30;99.90;;;;;;7332526;19;110169;-72
2023/08/16 13:40:47;;;;;;;;;;;27.20;99.90;;;;;;7331405;19;109293;-73
2023/08/16 13:43:17;;;;;;;;;;;27.20;99.90;;;;;;7335721;19;108990;-71
2023/08/16 13:45:51;;;;;;;;;;;27.20;99.90;;;;;;7337234;19;112163;-73
2023/08/16 13:48:19;;;;;;;;;;;27.00;99.90;;;;;;7332186;19;108784;-72
2023/08/16 13:50:46;;;;;;;;;;;26.90;99.90;;;;;;7332927;19;109997;-73
2023/08/16 13:53:13;;;;;;;;;;;27.00;99.90;;;;;;7332721;19;112783;-71
2023/08/16 13:55:43;;;;;;;;;;;26.90;99.90;;;;;;7333288;19;111383;-72
2023/08/16 13:58:11;;;;;;;;;;;26.70;99.90;;;;;;7334651;19;110158;-72
2023/08/16 14:00:38;;;;;;;;;;;26.70;99.90;;;;;;7334220;19;108551;-72
2023/08/16 14:03:05;;;;;;;;;;;26.60;99.90;;;;;;7333321;19;108785;-72
2023/08/16 14:05:32;;;;;;;;;;;26.70;99.90;;;;;;7332635;19;109582;-72
2023/08/16 14:08:00;;;;;;;;;;;26.70;99.90;;;;;;7337945;19;108417;-72
2023/08/16 14:10:27;;;;;;;;;;;26.70;99.90;;;;;;7333740;19;110221;-72